sensor_id;sensor_type;location;lat;lon;timestamp;P1;durP1;ratioP1;P2;durP2;ratioP2
29412;SDS011;16389;50.126;8.450;2023-05-10T00:01:37;1.42;;;0.30;;
29412;SDS011;16389;50.126;8.450;2023-05-10T00:04:03;0.38;;;0.32;;
29412;SDS011;16389;50.126;8.450;2023-05-10T00:06:29;1.88;;;0.40;;
29412;SDS011;16389;50.126;8.450;2023-05-10T00:08:55;1.15;;;0.40;;
29412;SDS011;16389;50.126;8.450;2023-05-10T00:11:20;1.30;;;0.40;;
29412;SDS011;16389;50.126;8.450;2023-05-10T00:13:46;0.30;;;0.30;;
29412;SDS011;16389;50.126;8.450;2023-05-10T00:16:12;1.23;;;0.40;;
29412;SDS011;16389;50.126;8.450;2023-05-10T00:18:38;1.55;;;0.43;;
29412;SDS011;16389;50.126;8.450;2023-05-10T00:21:05;0.80;;;0.30;;
29412;SDS011;16389;50.126;8.450;2023-05-10T00:23:31;0.20;;;0.20;;
29412;SDS011;16389;50.126;8.450;2023-05-10T00:25:57;0.32;;;0.30;;
29412;SDS011;16389;50.126;8.450;2023-05-10T00:28:22;0.30;;;0.30;;
29412;SDS011;16389;50.126;8.450;2023-05-10T00:30:48;0.38;;;0.38;;
29412;SDS011;16389;50.126;8.450;2023-05-10T00:33:13;1.98;;;0.28;;
29412;SDS011;16389;50.126;8.450;2023-05-10T00:35:39;0.88;;;0.30;;
29412;SDS011;16389;50.126;8.450;2023-05-10T00:38:05;0.40;;;0.20;;
29412;SDS011;16389;50.126;8.450;2023-05-10T00:40:31;0.70;;;0.40;;
29412;SDS011;16389;50.126;8.450;2023-05-10T00:42:57;0.30;;;0.30;;
29412;SDS011;16389;50.126;8.450;2023-05-10T00:45:23;0.30;;;0.30;;
29412;SDS011;16389;50.126;8.450;2023-05-10T00:47:49;0.50;;;0.50;;
29412;SDS011;16389;50.126;8.450;2023-05-10T00:52:45;0.20;;;0.20;;
29412;SDS011;16389;50.126;8.450;2023-05-10T00:55:11;0.40;;;0.40;;
29412;SDS011;16389;50.126;8.450;2023-05-10T00:57:37;0.55;;;0.30;;
29412;SDS011;16389;50.126;8.450;2023-05-10T01:00:03;0.30;;;0.30;;
29412;SDS011;16389;50.126;8.450;2023-05-10T01:02:29;0.93;;;0.30;;
29412;SDS011;16389;50.126;8.450;2023-05-10T01:04:55;0.20;;;0.20;;
29412;SDS011;16389;50.126;8.450;2023-05-10T01:07:21;0.30;;;0.30;;
29412;SDS011;16389;50.126;8.450;2023-05-10T01:09:47;1.95;;;0.47;;
29412;SDS011;16389;50.126;8.450;2023-05-10T01:12:12;2.88;;;0.40;;
29412;SDS011;16389;50.126;8.450;2023-05-10T01:14:38;0.75;;;0.30;;
29412;SDS011;16389;50.126;8.450;2023-05-10T01:17:05;0.80;;;0.40;;
29412;SDS011;16389;50.126;8.450;2023-05-10T01:19:32;0.35;;;0.30;;
29412;SDS011;16389;50.126;8.450;2023-05-10T01:33:43;0.32;;;0.30;;
29412;SDS011;16389;50.126;8.450;2023-05-10T01:42:09;0.30;;;0.30;;
29412;SDS011;16389;50.126;8.450;2023-05-10T01:47:08;0.63;;;0.30;;
29412;SDS011;16389;50.126;8.450;2023-05-10T01:49:41;0.35;;;0.35;;
29412;SDS011;16389;50.126;8.450;2023-05-10T01:52:15;0.50;;;0.40;;
29412;SDS011;16389;50.126;8.450;2023-05-10T01:54:51;0.40;;;0.40;;
29412;SDS011;16389;50.126;8.450;2023-05-10T01:57:21;0.45;;;0.40;;
29412;SDS011;16389;50.126;8.450;2023-05-10T01:59:49;0.40;;;0.40;;
29412;SDS011;16389;50.126;8.450;2023-05-10T02:02:17;1.13;;;0.40;;
29412;SDS011;16389;50.126;8.450;2023-05-10T02:04:45;0.25;;;0.25;;
29412;SDS011;16389;50.126;8.450;2023-05-10T02:07:12;0.40;;;0.40;;
29412;SDS011;16389;50.126;8.450;2023-05-10T02:09:39;1.10;;;0.40;;
29412;SDS011;16389;50.126;8.450;2023-05-10T02:12:09;0.65;;;0.32;;
29412;SDS011;16389;50.126;8.450;2023-05-10T02:14:36;0.38;;;0.38;;
29412;SDS011;16389;50.126;8.450;2023-05-10T02:17:05;1.00;;;0.30;;
29412;SDS011;16389;50.126;8.450;2023-05-10T02:19:32;2.00;;;0.40;;
29412;SDS011;16389;50.126;8.450;2023-05-10T02:22:01;0.40;;;0.40;;
29412;SDS011;16389;50.126;8.450;2023-05-10T02:24:28;0.55;;;0.38;;
29412;SDS011;16389;50.126;8.450;2023-05-10T02:26:54;0.38;;;0.38;;
29412;SDS011;16389;50.126;8.450;2023-05-10T02:29:21;1.25;;;0.45;;
29412;SDS011;16389;50.126;8.450;2023-05-10T02:34:17;0.60;;;0.60;;
29412;SDS011;16389;50.126;8.450;2023-05-10T02:36:44;0.40;;;0.40;;
29412;SDS011;16389;50.126;8.450;2023-05-10T02:39:10;0.98;;;0.50;;
29412;SDS011;16389;50.126;8.450;2023-05-10T02:41:38;1.85;;;0.50;;
29412;SDS011;16389;50.126;8.450;2023-05-10T02:44:07;0.75;;;0.60;;
29412;SDS011;16389;50.126;8.450;2023-05-10T02:46:34;0.50;;;0.47;;
29412;SDS011;16389;50.126;8.450;2023-05-10T02:49:02;1.05;;;0.55;;
29412;SDS011;16389;50.126;8.450;2023-05-10T02:51:30;0.50;;;0.50;;
29412;SDS011;16389;50.126;8.450;2023-05-10T02:53:57;0.68;;;0.52;;
29412;SDS011;16389;50.126;8.450;2023-05-10T02:56:30;0.70;;;0.60;;
29412;SDS011;16389;50.126;8.450;2023-05-10T02:58:59;0.50;;;0.50;;
29412;SDS011;16389;50.126;8.450;2023-05-10T03:01:25;1.45;;;0.45;;
29412;SDS011;16389;50.126;8.450;2023-05-10T03:03:50;0.40;;;0.40;;
29412;SDS011;16389;50.126;8.450;2023-05-10T03:06:16;0.40;;;0.40;;
29412;SDS011;16389;50.126;8.450;2023-05-10T03:08:42;0.40;;;0.40;;
29412;SDS011;16389;50.126;8.450;2023-05-10T03:11:56;0.40;;;0.40;;
29412;SDS011;16389;50.126;8.450;2023-05-10T03:17:00;2.75;;;0.52;;
29412;SDS011;16389;50.126;8.450;2023-05-10T03:19:39;0.75;;;0.75;;
29412;SDS011;16389;50.126;8.450;2023-05-10T03:22:23;0.50;;;0.50;;
29412;SDS011;16389;50.126;8.450;2023-05-10T03:24:57;0.70;;;0.70;;
29412;SDS011;16389;50.126;8.450;2023-05-10T03:27:25;0.70;;;0.70;;
29412;SDS011;16389;50.126;8.450;2023-05-10T03:29:53;0.73;;;0.65;;
29412;SDS011;16389;50.126;8.450;2023-05-10T03:32:22;0.70;;;0.70;;
29412;SDS011;16389;50.126;8.450;2023-05-10T03:34:48;0.70;;;0.70;;
29412;SDS011;16389;50.126;8.450;2023-05-10T03:37:14;1.98;;;0.52;;
29412;SDS011;16389;50.126;8.450;2023-05-10T03:39:39;0.68;;;0.63;;
29412;SDS011;16389;50.126;8.450;2023-05-10T03:42:05;1.27;;;0.70;;
29412;SDS011;16389;50.126;8.450;2023-05-10T03:44:31;0.60;;;0.60;;
29412;SDS011;16389;50.126;8.450;2023-05-10T03:46:58;0.60;;;0.60;;
29412;SDS011;16389;50.126;8.450;2023-05-10T03:49:24;0.68;;;0.60;;
29412;SDS011;16389;50.126;8.450;2023-05-10T03:51:49;1.38;;;0.70;;
29412;SDS011;16389;50.126;8.450;2023-05-10T03:54:15;0.85;;;0.50;;
29412;SDS011;16389;50.126;8.450;2023-05-10T03:56:41;0.73;;;0.60;;
29412;SDS011;16389;50.126;8.450;2023-05-10T03:59:06;0.82;;;0.65;;
29412;SDS011;16389;50.126;8.450;2023-05-10T04:01:33;1.00;;;0.70;;
29412;SDS011;16389;50.126;8.450;2023-05-10T04:03:59;0.68;;;0.60;;
29412;SDS011;16389;50.126;8.450;2023-05-10T04:06:25;0.57;;;0.57;;
29412;SDS011;16389;50.126;8.450;2023-05-10T04:08:51;0.80;;;0.60;;
29412;SDS011;16389;50.126;8.450;2023-05-10T04:11:16;2.40;;;0.80;;
29412;SDS011;16389;50.126;8.450;2023-05-10T04:13:42;1.63;;;0.70;;
29412;SDS011;16389;50.126;8.450;2023-05-10T04:16:08;1.15;;;1.00;;
29412;SDS011;16389;50.126;8.450;2023-05-10T04:18:34;0.73;;;0.73;;
29412;SDS011;16389;50.126;8.450;2023-05-10T04:21:00;0.80;;;0.80;;
29412;SDS011;16389;50.126;8.450;2023-05-10T04:23:26;1.98;;;1.00;;
29412;SDS011;16389;50.126;8.450;2023-05-10T04:25:52;1.08;;;0.90;;
29412;SDS011;16389;50.126;8.450;2023-05-10T04:28:23;1.00;;;0.82;;
29412;SDS011;16389;50.126;8.450;2023-05-10T04:30:49;1.13;;;1.00;;
29412;SDS011;16389;50.126;8.450;2023-05-10T04:33:14;1.38;;;1.20;;
29412;SDS011;16389;50.126;8.450;2023-05-10T04:35:40;1.20;;;1.10;;
29412;SDS011;16389;50.126;8.450;2023-05-10T04:38:06;2.00;;;1.52;;
29412;SDS011;16389;50.126;8.450;2023-05-10T04:40:31;1.38;;;1.25;;
29412;SDS011;16389;50.126;8.450;2023-05-10T04:42:57;1.88;;;1.63;;
29412;SDS011;16389;50.126;8.450;2023-05-10T04:45:23;5.00;;;1.33;;
29412;SDS011;16389;50.126;8.450;2023-05-10T04:47:48;1.55;;;1.45;;
29412;SDS011;16389;50.126;8.450;2023-05-10T04:50:14;1.33;;;1.23;;
29412;SDS011;16389;50.126;8.450;2023-05-10T04:52:40;2.50;;;1.40;;
29412;SDS011;16389;50.126;8.450;2023-05-10T04:55:05;1.63;;;1.40;;
29412;SDS011;16389;50.126;8.450;2023-05-10T04:57:34;1.25;;;1.15;;
29412;SDS011;16389;50.126;8.450;2023-05-10T05:00:00;2.10;;;1.42;;
29412;SDS011;16389;50.126;8.450;2023-05-10T05:02:25;1.45;;;1.10;;
29412;SDS011;16389;50.126;8.450;2023-05-10T05:04:51;1.30;;;1.20;;
29412;SDS011;16389;50.126;8.450;2023-05-10T05:07:16;1.38;;;1.25;;
29412;SDS011;16389;50.126;8.450;2023-05-10T05:09:42;1.50;;;1.30;;
29412;SDS011;16389;50.126;8.450;2023-05-10T05:12:07;2.00;;;1.17;;
29412;SDS011;16389;50.126;8.450;2023-05-10T05:14:33;1.90;;;1.30;;
29412;SDS011;16389;50.126;8.450;2023-05-10T05:16:59;1.50;;;1.40;;
29412;SDS011;16389;50.126;8.450;2023-05-10T05:19:24;1.35;;;1.15;;
29412;SDS011;16389;50.126;8.450;2023-05-10T05:21:50;3.10;;;1.40;;
29412;SDS011;16389;50.126;8.450;2023-05-10T05:24:15;1.33;;;1.23;;
29412;SDS011;16389;50.126;8.450;2023-05-10T05:26:41;3.28;;;1.23;;
29412;SDS011;16389;50.126;8.450;2023-05-10T05:29:07;1.30;;;1.20;;
29412;SDS011;16389;50.126;8.450;2023-05-10T05:31:32;1.23;;;1.13;;
29412;SDS011;16389;50.126;8.450;2023-05-10T05:33:58;1.63;;;1.52;;
29412;SDS011;16389;50.126;8.450;2023-05-10T05:36:23;2.88;;;1.42;;
29412;SDS011;16389;50.126;8.450;2023-05-10T05:38:49;1.38;;;1.25;;
29412;SDS011;16389;50.126;8.450;2023-05-10T05:41:15;1.83;;;1.40;;
29412;SDS011;16389;50.126;8.450;2023-05-10T05:43:40;1.58;;;1.48;;
29412;SDS011;16389;50.126;8.450;2023-05-10T05:46:06;1.70;;;1.60;;
29412;SDS011;16389;50.126;8.450;2023-05-10T05:48:31;1.38;;;1.27;;
29412;SDS011;16389;50.126;8.450;2023-05-10T05:50:57;1.77;;;1.20;;
29412;SDS011;16389;50.126;8.450;2023-05-10T05:53:23;1.95;;;1.42;;
29412;SDS011;16389;50.126;8.450;2023-05-10T05:55:52;1.70;;;1.52;;
29412;SDS011;16389;50.126;8.450;2023-05-10T05:58:18;5.05;;;1.55;;
29412;SDS011;16389;50.126;8.450;2023-05-10T06:00:43;2.92;;;1.50;;
29412;SDS011;16389;50.126;8.450;2023-05-10T06:03:09;2.55;;;1.80;;
29412;SDS011;16389;50.126;8.450;2023-05-10T06:05:35;3.97;;;1.73;;
29412;SDS011;16389;50.126;8.450;2023-05-10T06:08:01;1.90;;;1.50;;
29412;SDS011;16389;50.126;8.450;2023-05-10T06:10:26;1.65;;;1.40;;
29412;SDS011;16389;50.126;8.450;2023-05-10T06:12:52;1.67;;;1.58;;
29412;SDS011;16389;50.126;8.450;2023-05-10T06:15:18;2.03;;;1.55;;
29412;SDS011;16389;50.126;8.450;2023-05-10T06:17:43;1.70;;;1.50;;
29412;SDS011;16389;50.126;8.450;2023-05-10T06:20:09;1.15;;;1.00;;
29412;SDS011;16389;50.126;8.450;2023-05-10T06:22:35;1.50;;;1.40;;
29412;SDS011;16389;50.126;8.450;2023-05-10T06:25:01;2.60;;;1.20;;
29412;SDS011;16389;50.126;8.450;2023-05-10T06:27:27;3.78;;;1.52;;
29412;SDS011;16389;50.126;8.450;2023-05-10T06:29:53;1.15;;;1.05;;
29412;SDS011;16389;50.126;8.450;2023-05-10T06:32:18;1.77;;;1.48;;
29412;SDS011;16389;50.126;8.450;2023-05-10T06:34:44;1.67;;;1.50;;
29412;SDS011;16389;50.126;8.450;2023-05-10T06:37:09;1.30;;;1.17;;
29412;SDS011;16389;50.126;8.450;2023-05-10T06:39:35;1.52;;;1.15;;
29412;SDS011;16389;50.126;8.450;2023-05-10T06:42:01;3.53;;;2.67;;
29412;SDS011;16389;50.126;8.450;2023-05-10T06:44:27;2.08;;;1.50;;
29412;SDS011;16389;50.126;8.450;2023-05-10T06:46:53;2.22;;;1.35;;
29412;SDS011;16389;50.126;8.450;2023-05-10T06:49:20;1.83;;;1.70;;
29412;SDS011;16389;50.126;8.450;2023-05-10T06:51:46;1.40;;;1.15;;
29412;SDS011;16389;50.126;8.450;2023-05-10T06:54:11;3.75;;;1.38;;
29412;SDS011;16389;50.126;8.450;2023-05-10T06:56:37;3.17;;;1.13;;
29412;SDS011;16389;50.126;8.450;2023-05-10T06:59:03;2.97;;;1.23;;
29412;SDS011;16389;50.126;8.450;2023-05-10T07:01:28;1.45;;;1.20;;
29412;SDS011;16389;50.126;8.450;2023-05-10T07:03:54;2.95;;;1.33;;
29412;SDS011;16389;50.126;8.450;2023-05-10T07:06:19;4.13;;;1.40;;
29412;SDS011;16389;50.126;8.450;2023-05-10T07:08:45;2.80;;;1.77;;
29412;SDS011;16389;50.126;8.450;2023-05-10T07:11:11;1.27;;;1.10;;
29412;SDS011;16389;50.126;8.450;2023-05-10T07:13:36;2.90;;;1.30;;
29412;SDS011;16389;50.126;8.450;2023-05-10T07:16:04;1.23;;;1.10;;
29412;SDS011;16389;50.126;8.450;2023-05-10T07:18:31;5.00;;;1.20;;
29412;SDS011;16389;50.126;8.450;2023-05-10T07:20:57;2.35;;;1.05;;
29412;SDS011;16389;50.126;8.450;2023-05-10T07:23:23;2.88;;;1.10;;
29412;SDS011;16389;50.126;8.450;2023-05-10T07:25:48;4.43;;;1.38;;
29412;SDS011;16389;50.126;8.450;2023-05-10T07:28:17;2.70;;;1.67;;
29412;SDS011;16389;50.126;8.450;2023-05-10T07:30:43;1.58;;;1.17;;
29412;SDS011;16389;50.126;8.450;2023-05-10T07:33:09;1.70;;;1.60;;
29412;SDS011;16389;50.126;8.450;2023-05-10T07:35:37;2.45;;;1.30;;
29412;SDS011;16389;50.126;8.450;2023-05-10T07:38:02;4.32;;;1.50;;
29412;SDS011;16389;50.126;8.450;2023-05-10T07:40:28;1.38;;;1.20;;
29412;SDS011;16389;50.126;8.450;2023-05-10T07:42:54;1.58;;;1.10;;
29412;SDS011;16389;50.126;8.450;2023-05-10T07:45:20;2.13;;;1.20;;
29412;SDS011;16389;50.126;8.450;2023-05-10T07:47:45;1.20;;;1.10;;
29412;SDS011;16389;50.126;8.450;2023-05-10T07:50:11;3.72;;;1.00;;
29412;SDS011;16389;50.126;8.450;2023-05-10T07:52:37;4.70;;;1.02;;
29412;SDS011;16389;50.126;8.450;2023-05-10T07:55:02;2.03;;;1.58;;
29412;SDS011;16389;50.126;8.450;2023-05-10T07:57:28;1.15;;;1.05;;
29412;SDS011;16389;50.126;8.450;2023-05-10T07:59:54;1.40;;;0.93;;
29412;SDS011;16389;50.126;8.450;2023-05-10T08:02:20;1.10;;;1.00;;
29412;SDS011;16389;50.126;8.450;2023-05-10T08:04:45;1.10;;;1.00;;
29412;SDS011;16389;50.126;8.450;2023-05-10T08:07:11;1.20;;;0.93;;
29412;SDS011;16389;50.126;8.450;2023-05-10T08:09:36;1.30;;;1.20;;
29412;SDS011;16389;50.126;8.450;2023-05-10T08:12:02;1.05;;;0.90;;
29412;SDS011;16389;50.126;8.450;2023-05-10T08:14:28;1.02;;;0.90;;
29412;SDS011;16389;50.126;8.450;2023-05-10T08:16:54;1.15;;;1.05;;
29412;SDS011;16389;50.126;8.450;2023-05-10T08:19:21;1.10;;;1.00;;
29412;SDS011;16389;50.126;8.450;2023-05-10T08:21:47;4.68;;;1.40;;
29412;SDS011;16389;50.126;8.450;2023-05-10T08:24:13;1.33;;;1.20;;
29412;SDS011;16389;50.126;8.450;2023-05-10T08:26:39;3.35;;;1.50;;
29412;SDS011;16389;50.126;8.450;2023-05-10T08:29:05;2.30;;;1.02;;
29412;SDS011;16389;50.126;8.450;2023-05-10T08:31:31;5.05;;;1.10;;
29412;SDS011;16389;50.126;8.450;2023-05-10T08:33:56;1.45;;;1.25;;
29412;SDS011;16389;50.126;8.450;2023-05-10T08:36:22;3.88;;;1.30;;
29412;SDS011;16389;50.126;8.450;2023-05-10T08:38:52;1.67;;;1.33;;
29412;SDS011;16389;50.126;8.450;2023-05-10T08:41:22;2.80;;;1.27;;
29412;SDS011;16389;50.126;8.450;2023-05-10T08:43:54;2.55;;;1.17;;
29412;SDS011;16389;50.126;8.450;2023-05-10T08:46:20;2.00;;;1.00;;
29412;SDS011;16389;50.126;8.450;2023-05-10T08:48:47;3.67;;;1.17;;
29412;SDS011;16389;50.126;8.450;2023-05-10T08:51:18;1.90;;;1.20;;
29412;SDS011;16389;50.126;8.450;2023-05-10T08:53:46;2.20;;;1.20;;
29412;SDS011;16389;50.126;8.450;2023-05-10T08:56:13;1.70;;;1.35;;
29412;SDS011;16389;50.126;8.450;2023-05-10T08:58:40;1.73;;;1.10;;
29412;SDS011;16389;50.126;8.450;2023-05-10T09:01:06;1.35;;;0.95;;
29412;SDS011;16389;50.126;8.450;2023-05-10T09:03:33;1.42;;;1.00;;
29412;SDS011;16389;50.126;8.450;2023-05-10T09:06:00;0.85;;;0.80;;
29412;SDS011;16389;50.126;8.450;2023-05-10T09:08:26;1.63;;;1.02;;
29412;SDS011;16389;50.126;8.450;2023-05-10T09:10:52;1.15;;;0.85;;
29412;SDS011;16389;50.126;8.450;2023-05-10T09:13:19;1.50;;;0.80;;
29412;SDS011;16389;50.126;8.450;2023-05-10T09:15:47;1.65;;;0.90;;
29412;SDS011;16389;50.126;8.450;2023-05-10T09:18:13;0.95;;;0.82;;
29412;SDS011;16389;50.126;8.450;2023-05-10T09:20:39;2.63;;;1.00;;
29412;SDS011;16389;50.126;8.450;2023-05-10T09:23:05;1.63;;;1.25;;
29412;SDS011;16389;50.126;8.450;2023-05-10T09:25:31;2.03;;;1.40;;
29412;SDS011;16389;50.126;8.450;2023-05-10T09:27:58;0.80;;;0.70;;
29412;SDS011;16389;50.126;8.450;2023-05-10T09:30:28;1.38;;;0.93;;
29412;SDS011;16389;50.126;8.450;2023-05-10T09:32:55;0.65;;;0.63;;
29412;SDS011;16389;50.126;8.450;2023-05-10T09:35:23;0.70;;;0.60;;
29412;SDS011;16389;50.126;8.450;2023-05-10T09:37:50;0.60;;;0.60;;
29412;SDS011;16389;50.126;8.450;2023-05-10T09:40:21;1.73;;;0.73;;
29412;SDS011;16389;50.126;8.450;2023-05-10T09:45:25;0.95;;;0.85;;
29412;SDS011;16389;50.126;8.450;2023-05-10T09:47:52;1.00;;;0.90;;
29412;SDS011;16389;50.126;8.450;2023-05-10T09:50:19;1.20;;;0.93;;
29412;SDS011;16389;50.126;8.450;2023-05-10T09:52:58;1.65;;;0.90;;
29412;SDS011;16389;50.126;8.450;2023-05-10T09:55:37;1.33;;;0.70;;
29412;SDS011;16389;50.126;8.450;2023-05-10T09:58:04;3.27;;;1.10;;
29412;SDS011;16389;50.126;8.450;2023-05-10T10:00:41;0.95;;;0.80;;
29412;SDS011;16389;50.126;8.450;2023-05-10T10:03:12;1.17;;;0.90;;
29412;SDS011;16389;50.126;8.450;2023-05-10T10:05:40;2.25;;;1.00;;
29412;SDS011;16389;50.126;8.450;2023-05-10T10:08:07;0.85;;;0.80;;
29412;SDS011;16389;50.126;8.450;2023-05-10T10:10:33;2.70;;;0.80;;
29412;SDS011;16389;50.126;8.450;2023-05-10T10:12:59;3.25;;;0.90;;
29412;SDS011;16389;50.126;8.450;2023-05-10T10:15:26;1.23;;;0.70;;
29412;SDS011;16389;50.126;8.450;2023-05-10T10:17:52;3.38;;;0.80;;
29412;SDS011;16389;50.126;8.450;2023-05-10T10:20:19;1.65;;;0.77;;
29412;SDS011;16389;50.126;8.450;2023-05-10T10:22:46;2.63;;;0.70;;
29412;SDS011;16389;50.126;8.450;2023-05-10T10:25:13;0.73;;;0.40;;
29412;SDS011;16389;50.126;8.450;2023-05-10T10:35:55;2.15;;;0.60;;
29412;SDS011;16389;50.126;8.450;2023-05-10T10:38:23;0.68;;;0.50;;
29412;SDS011;16389;50.126;8.450;2023-05-10T10:41:01;1.77;;;0.50;;
29412;SDS011;16389;50.126;8.450;2023-05-10T10:43:28;1.95;;;0.80;;
29412;SDS011;16389;50.126;8.450;2023-05-10T10:46:13;1.70;;;0.70;;
29412;SDS011;16389;50.126;8.450;2023-05-10T10:48:40;1.70;;;0.57;;
29412;SDS011;16389;50.126;8.450;2023-05-10T10:51:18;0.47;;;0.47;;
29412;SDS011;16389;50.126;8.450;2023-05-10T10:53:44;0.85;;;0.45;;
29412;SDS011;16389;50.126;8.450;2023-05-10T10:56:13;0.65;;;0.57;;
29412;SDS011;16389;50.126;8.450;2023-05-10T10:58:40;1.35;;;0.70;;
29412;SDS011;16389;50.126;8.450;2023-05-10T11:01:13;1.20;;;0.60;;
29412;SDS011;16389;50.126;8.450;2023-05-10T11:03:40;0.85;;;0.50;;
29412;SDS011;16389;50.126;8.450;2023-05-10T11:06:29;0.95;;;0.68;;
29412;SDS011;16389;50.126;8.450;2023-05-10T11:08:59;2.72;;;0.60;;
29412;SDS011;16389;50.126;8.450;2023-05-10T11:11:31;3.83;;;0.60;;
29412;SDS011;16389;50.126;8.450;2023-05-10T11:14:02;0.60;;;0.50;;
29412;SDS011;16389;50.126;8.450;2023-05-10T11:16:29;3.00;;;2.75;;
29412;SDS011;16389;50.126;8.450;2023-05-10T11:19:09;1.13;;;0.50;;
29412;SDS011;16389;50.126;8.450;2023-05-10T11:21:47;0.60;;;0.50;;
29412;SDS011;16389;50.126;8.450;2023-05-10T11:24:17;0.90;;;0.65;;
29412;SDS011;16389;50.126;8.450;2023-05-10T11:26:44;0.60;;;0.60;;
29412;SDS011;16389;50.126;8.450;2023-05-10T11:29:12;1.10;;;0.47;;
29412;SDS011;16389;50.126;8.450;2023-05-10T11:31:44;0.40;;;0.40;;
29412;SDS011;16389;50.126;8.450;2023-05-10T11:34:11;0.65;;;0.50;;
29412;SDS011;16389;50.126;8.450;2023-05-10T11:36:50;1.40;;;1.08;;
29412;SDS011;16389;50.126;8.450;2023-05-10T11:39:18;0.90;;;0.57;;
29412;SDS011;16389;50.126;8.450;2023-05-10T11:41:46;0.52;;;0.52;;
29412;SDS011;16389;50.126;8.450;2023-05-10T11:44:14;0.47;;;0.47;;
29412;SDS011;16389;50.126;8.450;2023-05-10T11:46:39;0.70;;;0.30;;
29412;SDS011;16389;50.126;8.450;2023-05-10T11:49:06;0.30;;;0.30;;
29412;SDS011;16389;50.126;8.450;2023-05-10T11:51:33;0.73;;;0.40;;
29412;SDS011;16389;50.126;8.450;2023-05-10T11:54:01;0.40;;;0.30;;
29412;SDS011;16389;50.126;8.450;2023-05-10T11:56:34;0.30;;;0.30;;
29412;SDS011;16389;50.126;8.450;2023-05-10T11:59:01;0.55;;;0.30;;
29412;SDS011;16389;50.126;8.450;2023-05-10T12:01:27;0.30;;;0.30;;
29412;SDS011;16389;50.126;8.450;2023-05-10T12:03:55;4.55;;;0.30;;
29412;SDS011;16389;50.126;8.450;2023-05-10T12:06:28;0.40;;;0.40;;
29412;SDS011;16389;50.126;8.450;2023-05-10T12:08:56;0.40;;;0.40;;
29412;SDS011;16389;50.126;8.450;2023-05-10T12:11:26;0.65;;;0.38;;
29412;SDS011;16389;50.126;8.450;2023-05-10T12:13:53;0.40;;;0.40;;
29412;SDS011;16389;50.126;8.450;2023-05-10T12:16:20;0.40;;;0.40;;
29412;SDS011;16389;50.126;8.450;2023-05-10T12:18:50;1.00;;;0.43;;
29412;SDS011;16389;50.126;8.450;2023-05-10T12:21:18;0.40;;;0.40;;
29412;SDS011;16389;50.126;8.450;2023-05-10T12:23:51;0.60;;;0.60;;
29412;SDS011;16389;50.126;8.450;2023-05-10T12:26:18;1.90;;;0.57;;
29412;SDS011;16389;50.126;8.450;2023-05-10T12:28:46;0.45;;;0.40;;
29412;SDS011;16389;50.126;8.450;2023-05-10T12:31:12;4.63;;;0.50;;
29412;SDS011;16389;50.126;8.450;2023-05-10T12:33:44;0.40;;;0.40;;
29412;SDS011;16389;50.126;8.450;2023-05-10T12:36:11;0.40;;;0.40;;
29412;SDS011;16389;50.126;8.450;2023-05-10T12:38:40;0.52;;;0.40;;
29412;SDS011;16389;50.126;8.450;2023-05-10T12:41:10;0.98;;;0.38;;
29412;SDS011;16389;50.126;8.450;2023-05-10T12:43:42;2.05;;;0.50;;
29412;SDS011;16389;50.126;8.450;2023-05-10T12:46:09;0.40;;;0.40;;
29412;SDS011;16389;50.126;8.450;2023-05-10T12:48:36;0.55;;;0.32;;
29412;SDS011;16389;50.126;8.450;2023-05-10T12:51:03;0.68;;;0.40;;
29412;SDS011;16389;50.126;8.450;2023-05-10T12:53:30;0.40;;;0.40;;
29412;SDS011;16389;50.126;8.450;2023-05-10T12:55:56;1.13;;;0.50;;
29412;SDS011;16389;50.126;8.450;2023-05-10T12:58:22;0.35;;;0.35;;
29412;SDS011;16389;50.126;8.450;2023-05-10T13:00:48;0.63;;;0.50;;
29412;SDS011;16389;50.126;8.450;2023-05-10T13:03:14;0.43;;;0.30;;
29412;SDS011;16389;50.126;8.450;2023-05-10T13:05:40;0.30;;;0.30;;
29412;SDS011;16389;50.126;8.450;2023-05-10T13:08:06;0.70;;;0.30;;
29412;SDS011;16389;50.126;8.450;2023-05-10T13:10:31;0.82;;;0.50;;
29412;SDS011;16389;50.126;8.450;2023-05-10T13:12:57;0.30;;;0.30;;
29412;SDS011;16389;50.126;8.450;2023-05-10T13:15:24;2.13;;;0.88;;
29412;SDS011;16389;50.126;8.450;2023-05-10T13:17:50;1.38;;;0.40;;
29412;SDS011;16389;50.126;8.450;2023-05-10T13:20:16;0.40;;;0.40;;
29412;SDS011;16389;50.126;8.450;2023-05-10T13:22:43;0.30;;;0.30;;
29412;SDS011;16389;50.126;8.450;2023-05-10T13:25:09;0.60;;;0.40;;
29412;SDS011;16389;50.126;8.450;2023-05-10T13:27:35;0.30;;;0.30;;
29412;SDS011;16389;50.126;8.450;2023-05-10T13:30:02;2.40;;;0.40;;
29412;SDS011;16389;50.126;8.450;2023-05-10T13:32:28;0.30;;;0.30;;
29412;SDS011;16389;50.126;8.450;2023-05-10T13:34:55;0.57;;;0.50;;
29412;SDS011;16389;50.126;8.450;2023-05-10T13:37:21;0.40;;;0.30;;
29412;SDS011;16389;50.126;8.450;2023-05-10T13:39:47;0.65;;;0.30;;
29412;SDS011;16389;50.126;8.450;2023-05-10T13:42:12;3.70;;;0.40;;
29412;SDS011;16389;50.126;8.450;2023-05-10T13:44:38;0.30;;;0.30;;
29412;SDS011;16389;50.126;8.450;2023-05-10T13:47:04;0.38;;;0.38;;
29412;SDS011;16389;50.126;8.450;2023-05-10T13:49:30;0.30;;;0.30;;
29412;SDS011;16389;50.126;8.450;2023-05-10T13:51:56;1.25;;;0.40;;
29412;SDS011;16389;50.126;8.450;2023-05-10T13:54:21;0.75;;;0.35;;
29412;SDS011;16389;50.126;8.450;2023-05-10T13:56:48;2.58;;;1.15;;
29412;SDS011;16389;50.126;8.450;2023-05-10T13:59:13;0.30;;;0.30;;
29412;SDS011;16389;50.126;8.450;2023-05-10T14:01:40;0.32;;;0.30;;
29412;SDS011;16389;50.126;8.450;2023-05-10T14:04:06;0.30;;;0.30;;
29412;SDS011;16389;50.126;8.450;2023-05-10T14:06:35;0.30;;;0.30;;
29412;SDS011;16389;50.126;8.450;2023-05-10T14:09:03;0.98;;;0.30;;
29412;SDS011;16389;50.126;8.450;2023-05-10T14:11:29;0.20;;;0.20;;
29412;SDS011;16389;50.126;8.450;2023-05-10T14:13:54;0.45;;;0.30;;
29412;SDS011;16389;50.126;8.450;2023-05-10T14:16:20;0.30;;;0.30;;
29412;SDS011;16389;50.126;8.450;2023-05-10T14:18:46;0.40;;;0.40;;
29412;SDS011;16389;50.126;8.450;2023-05-10T14:21:12;0.40;;;0.30;;
29412;SDS011;16389;50.126;8.450;2023-05-10T14:23:38;0.20;;;0.20;;
29412;SDS011;16389;50.126;8.450;2023-05-10T14:26:03;1.30;;;0.25;;
29412;SDS011;16389;50.126;8.450;2023-05-10T14:28:29;1.48;;;0.30;;
29412;SDS011;16389;50.126;8.450;2023-05-10T14:30:55;0.30;;;0.30;;
29412;SDS011;16389;50.126;8.450;2023-05-10T14:33:21;0.43;;;0.30;;
29412;SDS011;16389;50.126;8.450;2023-05-10T14:35:47;1.85;;;0.30;;
29412;SDS011;16389;50.126;8.450;2023-05-10T14:38:14;0.30;;;0.30;;
29412;SDS011;16389;50.126;8.450;2023-05-10T14:40:40;1.00;;;0.40;;
29412;SDS011;16389;50.126;8.450;2023-05-10T14:43:06;0.22;;;0.22;;
29412;SDS011;16389;50.126;8.450;2023-05-10T14:45:32;0.73;;;0.35;;
29412;SDS011;16389;50.126;8.450;2023-05-10T14:47:57;0.50;;;0.40;;
29412;SDS011;16389;50.126;8.450;2023-05-10T14:50:23;0.38;;;0.30;;
29412;SDS011;16389;50.126;8.450;2023-05-10T14:52:49;0.38;;;0.30;;
29412;SDS011;16389;50.126;8.450;2023-05-10T14:55:15;0.40;;;0.40;;
29412;SDS011;16389;50.126;8.450;2023-05-10T14:57:41;0.55;;;0.30;;
29412;SDS011;16389;50.126;8.450;2023-05-10T15:00:07;0.30;;;0.30;;
29412;SDS011;16389;50.126;8.450;2023-05-10T15:02:34;0.55;;;0.40;;
29412;SDS011;16389;50.126;8.450;2023-05-10T15:04:59;0.75;;;0.40;;
29412;SDS011;16389;50.126;8.450;2023-05-10T15:07:25;1.00;;;0.30;;
29412;SDS011;16389;50.126;8.450;2023-05-10T15:09:51;0.68;;;0.40;;
29412;SDS011;16389;50.126;8.450;2023-05-10T15:12:17;2.15;;;0.50;;
29412;SDS011;16389;50.126;8.450;2023-05-10T15:14:43;0.93;;;0.40;;
29412;SDS011;16389;50.126;8.450;2023-05-10T15:17:09;0.57;;;0.50;;
29412;SDS011;16389;50.126;8.450;2023-05-10T15:19:35;0.40;;;0.40;;
29412;SDS011;16389;50.126;8.450;2023-05-10T15:22:02;0.80;;;0.50;;
29412;SDS011;16389;50.126;8.450;2023-05-10T15:24:29;3.60;;;0.50;;
29412;SDS011;16389;50.126;8.450;2023-05-10T15:26:54;0.40;;;0.40;;